DNMM/LOS METAR and TAF weather

Enter ICAO airport designator
Station Type Date Time Source
DNMM METAR 2019/08/21 22:00 UTC NOAA

DNMM 212200Z 24008KT 9999 FEW009 25/24 Q1014 NOSIG


Station Type Date Time Source
DNMM Decoded METAR 2019/08/21 22:00 UTC NOAA

Station name not available
Aug 21, 2019 - 06:00 PM EDT / 2019.08.21 2200 UTC
Wind: from the WSW (240 degrees) at 9 MPH (8 KT):0
Visibility: greater than 7 mile(s):0
Sky conditions: mostly clear
Temperature: 77 F (25 C)
Dew Point: 75 F (24 C)
Relative Humidity: 94%
Pressure (altimeter): 29.94 in. Hg (1014 hPa)
ob: DNMM 212200Z 24008KT 9999 FEW009 25/24 Q1014 NOSIG
cycle: 22

Station Type Date Time Source
DNMM TAF 2019/08/21 18:21 UTC NOAA

TAF DNMM 211700Z 2118/2224 VRB02KT 9999 SCT010 PROB30
TEMPO 2205/2209 5000 -RA SCT010 FEW019CB
BECMG 2209/2211 24010KT BKN013 FEW020CB
TEMPO 2214/2217 5000 -RA BKN009 FEW019CB

Example: see airport list